Pagrindinis puslapis
METAR-TAF:

METAR-TAF

Oro uostai :

Salinasas, Ekvadoras

platuma: 02-12-18S, ilguma: 080-59-20W, Aukštis: 5 m

Dabartinis oras

Ataskaita buvo paskelbta 27 minutes, ne 22:00 UTC
Vėjas 8 kt iš Vakarų/Pietvakarių
Temperatūra 29°C
Drėgmė 70%
Slėgis 1007 hPa
Matomumas 10 km arba daugiau
nėra debesų žemiau 1500 m ir nėra kamuolinių lietaus debesų

METAR: SESA 172200Z 24008KT CAVOK 29/23 Q1007 RMK A2975

Laikas: 17:27 (22:27 UTC)


TAF: trūkstamas

Orai ataskaitas ir orų prognozės (METAR, TAF).

turimą stotys yra geltonos ir raudonos taškus žemėlapyje.

Perkelti pele per norėdami pamatyti stoties vardą.

Tada spustelėkite, norėdami matyti oro stebėjimo ir prognozės.

Norėdami pakeisti žemėlapį: spustelėkite ant žalios mygtukų su juodo kryžiaus žemyn,; žalią mygtuką su brūkšneliu, jei norite nutolinti; arba žalių rodyklių gretimoms žemėlapius.


METAR-TAF: